Metar z połowy godziny Komunikat METAR ze strony awiacja.imgw.pl Metar G00 EPRA METAR EPRA 212330Z 09007KT CAVOK 16/13 Q1011=